createdAt,value
2018-10-07T00:01:36.140Z,85.21
2018-10-07T00:04:04.519Z,85.79
2018-10-07T00:06:33.151Z,86.01
2018-10-07T00:09:01.328Z,85.19
2018-10-07T00:11:29.565Z,84.91
2018-10-07T00:13:57.724Z,85.13
2018-10-07T00:16:25.926Z,86.40
2018-10-07T00:18:54.014Z,84.93
2018-10-07T00:21:22.132Z,86.38
2018-10-07T00:23:50.326Z,86.86
2018-10-07T00:26:18.588Z,86.74
2018-10-07T00:28:46.729Z,86.26
2018-10-07T00:31:15.032Z,86.83
2018-10-07T00:33:43.219Z,87.24
2018-10-07T00:36:11.388Z,86.66
2018-10-07T00:38:39.498Z,86.86
2018-10-07T00:41:07.761Z,86.25
2018-10-07T00:43:35.952Z,86.97
2018-10-07T00:46:04.287Z,87.05
2018-10-07T00:48:32.535Z,87.58
2018-10-07T00:51:00.876Z,87.10
2018-10-07T00:53:28.951Z,87.23
2018-10-07T00:55:57.200Z,88.06
2018-10-07T00:58:25.387Z,87.87
2018-10-07T01:00:53.514Z,88.50
2018-10-07T01:03:21.637Z,87.62
2018-10-07T01:05:49.836Z,87.69
2018-10-07T01:08:18.072Z,88.38
2018-10-07T01:10:46.257Z,88.90
2018-10-07T01:13:14.390Z,88.84
2018-10-07T01:15:43.559Z,89.40
2018-10-07T01:18:11.703Z,90.37
2018-10-07T01:20:39.897Z,91.44
2018-10-07T01:23:08.279Z,90.24
2018-10-07T01:25:36.421Z,91.39
2018-10-07T01:28:04.587Z,91.92
2018-10-07T01:30:32.823Z,89.82
2018-10-07T01:33:00.924Z,90.20
2018-10-07T01:35:29.055Z,91.79
2018-10-07T01:37:57.179Z,89.49
2018-10-07T01:40:25.414Z,90.44
2018-10-07T01:42:53.578Z,90.78
2018-10-07T01:45:21.700Z,91.17
2018-10-07T01:47:49.867Z,91.56
2018-10-07T01:50:17.993Z,93.05
2018-10-07T01:52:46.218Z,92.01
2018-10-07T01:55:14.318Z,90.02
2018-10-07T01:57:42.415Z,90.41
2018-10-07T02:00:10.576Z,91.91
2018-10-07T02:02:38.710Z,91.86
2018-10-07T02:05:06.886Z,92.42
2018-10-07T02:07:35.202Z,92.42
2018-10-07T02:10:03.306Z,91.55
2018-10-07T02:12:31.473Z,91.00
2018-10-07T02:14:59.591Z,91.60
2018-10-07T02:17:27.857Z,91.49
2018-10-07T02:19:56.140Z,92.37
2018-10-07T02:22:24.350Z,92.23
2018-10-07T02:24:52.506Z,92.10
2018-10-07T02:27:20.519Z,91.83
2018-10-07T02:29:48.664Z,91.50
2018-10-07T02:32:16.891Z,91.16
2018-10-07T02:34:45.023Z,92.05
2018-10-07T02:37:13.185Z,91.32
2018-10-07T02:39:41.372Z,91.79
2018-10-07T02:42:09.497Z,91.25
2018-10-07T02:44:37.693Z,92.49
2018-10-07T02:47:06.390Z,91.34
2018-10-07T02:49:34.510Z,92.39
2018-10-07T02:52:02.649Z,93.42
2018-10-07T02:54:30.885Z,92.62
2018-10-07T02:56:59.076Z,91.73
2018-10-07T02:59:27.560Z,92.84
2018-10-07T03:01:55.685Z,92.99
2018-10-07T03:04:23.923Z,93.51
2018-10-07T03:06:52.125Z,93.28
2018-10-07T03:09:20.194Z,93.42
2018-10-07T03:11:48.383Z,92.41
2018-10-07T03:14:16.543Z,93.18
2018-10-07T03:16:44.762Z,93.30
2018-10-07T03:19:13.068Z,95.18
2018-10-07T03:21:41.260Z,94.03
2018-10-07T03:24:09.464Z,93.22
2018-10-07T03:26:38.011Z,93.97
2018-10-07T03:29:06.546Z,95.09
2018-10-07T03:31:34.718Z,95.34
2018-10-07T03:34:02.985Z,93.86
2018-10-07T03:36:31.108Z,93.70
2018-10-07T03:38:59.274Z,93.76
2018-10-07T03:41:27.637Z,93.58
2018-10-07T03:43:56.009Z,93.77
2018-10-07T03:46:24.201Z,93.73
2018-10-07T03:48:52.366Z,93.70
2018-10-07T03:51:20.629Z,95.48
2018-10-07T03:53:48.766Z,93.86
2018-10-07T03:56:16.884Z,93.57
2018-10-07T03:58:45.008Z,93.61
2018-10-07T04:01:13.440Z,94.82
2018-10-07T04:03:41.743Z,94.53
2018-10-07T04:06:09.920Z,94.78
2018-10-07T04:08:38.165Z,94.98
2018-10-07T04:11:06.692Z,94.63
2018-10-07T04:13:35.008Z,93.75
2018-10-07T04:16:03.339Z,95.26
2018-10-07T04:18:31.573Z,95.16
2018-10-07T04:21:00.169Z,95.99
2018-10-07T04:23:28.341Z,95.10
2018-10-07T04:25:56.564Z,95.25
2018-10-07T04:28:24.636Z,96.85
2018-10-07T04:30:52.819Z,96.25
2018-10-07T04:33:20.884Z,95.06
2018-10-07T04:35:48.895Z,94.93
2018-10-07T04:38:17.065Z,96.06
2018-10-07T04:40:45.205Z,95.58
2018-10-07T04:43:13.268Z,95.03
2018-10-07T04:45:41.276Z,95.45
2018-10-07T04:48:09.717Z,95.60
2018-10-07T04:50:37.830Z,94.70
2018-10-07T04:53:06.548Z,95.76
2018-10-07T04:55:34.697Z,95.25
2018-10-07T04:58:02.734Z,94.85
2018-10-07T05:00:30.805Z,95.03
2018-10-07T05:02:58.898Z,94.56
2018-10-07T05:05:27.399Z,94.22
2018-10-07T05:07:55.636Z,93.63
2018-10-07T05:10:58.778Z,95.71
2018-10-07T05:13:32.366Z,94.67
2018-10-07T05:16:03.002Z,94.65
2018-10-07T05:18:32.235Z,94.64
2018-10-07T05:21:00.762Z,95.09
2018-10-07T05:23:29.058Z,93.92
2018-10-07T05:25:57.385Z,92.10
2018-10-07T05:28:27.806Z,88.81
2018-10-07T05:30:56.449Z,87.86
2018-10-07T05:33:24.983Z,86.17
2018-10-07T05:35:53.206Z,84.58
2018-10-07T05:38:22.078Z,83.86
2018-10-07T05:40:51.503Z,83.70
2018-10-07T05:43:21.092Z,81.58
2018-10-07T05:45:51.616Z,81.98
2018-10-07T05:48:20.073Z,81.87
2018-10-07T05:50:48.820Z,81.56
2018-10-07T05:53:18.112Z,80.57
2018-10-07T05:55:46.852Z,82.29
2018-10-07T05:58:15.679Z,82.59
2018-10-07T06:00:44.852Z,83.11
2018-10-07T06:03:20.882Z,83.53
2018-10-07T06:05:51.152Z,84.24
2018-10-07T06:08:23.227Z,83.91
2018-10-07T06:10:52.337Z,82.57
2018-10-07T06:13:21.066Z,81.78
2018-10-07T06:15:49.748Z,82.32
2018-10-07T06:18:19.189Z,80.78
2018-10-07T06:20:48.286Z,81.06
2018-10-07T06:23:16.957Z,79.76
2018-10-07T06:25:46.354Z,78.94
2018-10-07T06:28:15.397Z,78.29
2018-10-07T06:30:44.484Z,77.70
2018-10-07T06:33:14.880Z,77.20
2018-10-07T06:35:44.040Z,77.96
2018-10-07T06:38:12.738Z,76.06
2018-10-07T06:40:41.793Z,75.99
2018-10-07T06:43:10.542Z,76.00
2018-10-07T06:45:39.213Z,75.03
2018-10-07T06:48:11.569Z,75.11
2018-10-07T06:50:40.782Z,75.05
2018-10-07T06:53:13.163Z,72.47
2018-10-07T06:55:41.774Z,73.28
2018-10-07T06:58:11.065Z,74.29
2018-10-07T07:00:39.710Z,74.14
2018-10-07T07:03:08.542Z,73.08
2018-10-07T07:05:40.183Z,72.99
2018-10-07T07:08:10.809Z,71.71
2018-10-07T07:10:39.473Z,72.45
2018-10-07T07:13:08.000Z,70.75
2018-10-07T07:15:36.439Z,71.19
2018-10-07T07:18:04.978Z,69.00
2018-10-07T07:20:33.417Z,70.30
2018-10-07T07:23:01.754Z,70.33
2018-10-07T07:25:30.152Z,72.04
2018-10-07T07:27:58.608Z,69.69
2018-10-07T07:30:27.266Z,68.21
2018-10-07T07:32:55.978Z,68.46
2018-10-07T07:35:24.358Z,68.92
2018-10-07T07:37:52.967Z,68.30
2018-10-07T07:40:21.388Z,67.75
2018-10-07T07:42:49.799Z,65.91
2018-10-07T07:45:18.325Z,64.04
2018-10-07T07:47:46.757Z,64.75
2018-10-07T07:50:15.335Z,64.92
2018-10-07T07:52:43.963Z,64.22
2018-10-07T07:55:12.506Z,63.37
2018-10-07T07:57:41.103Z,63.25
2018-10-07T08:00:09.594Z,63.07
2018-10-07T08:02:38.991Z,62.99
2018-10-07T08:05:07.552Z,63.33
2018-10-07T08:07:36.450Z,62.92
2018-10-07T08:10:05.609Z,61.44
2018-10-07T08:12:34.843Z,62.40
2018-10-07T08:15:03.656Z,59.70
2018-10-07T08:17:34.253Z,58.72
2018-10-07T08:20:02.835Z,59.32
2018-10-07T08:22:32.414Z,58.37
2018-10-07T08:25:00.961Z,58.39
2018-10-07T08:27:29.752Z,58.55
2018-10-07T08:29:58.092Z,57.18
2018-10-07T08:32:26.443Z,55.85
2018-10-07T08:34:54.791Z,54.61
2018-10-07T08:37:23.166Z,54.12
2018-10-07T08:39:51.422Z,53.30
2018-10-07T08:42:19.811Z,54.47
2018-10-07T08:44:48.124Z,52.91
2018-10-07T08:47:16.582Z,53.29
2018-10-07T08:49:45.111Z,52.32
2018-10-07T08:52:14.044Z,51.13
2018-10-07T08:54:42.433Z,52.33
2018-10-07T08:57:11.369Z,52.30
2018-10-07T08:59:39.993Z,50.84
2018-10-07T09:02:08.481Z,52.43
2018-10-07T09:04:37.171Z,51.46
2018-10-07T09:07:05.403Z,50.67
2018-10-07T09:09:33.669Z,51.32
2018-10-07T09:12:01.975Z,50.90
2018-10-07T09:14:30.573Z,49.67
2018-10-07T09:16:58.971Z,47.83
2018-10-07T09:19:27.386Z,49.48
2018-10-07T09:21:55.789Z,48.84
2018-10-07T09:24:24.221Z,49.14
2018-10-07T09:26:53.027Z,48.94
2018-10-07T09:29:21.622Z,49.61
2018-10-07T09:31:50.879Z,49.87
2018-10-07T09:34:19.476Z,48.23
2018-10-07T09:36:48.011Z,47.38
2018-10-07T09:39:16.443Z,48.98
2018-10-07T09:41:44.927Z,48.57
2018-10-07T09:44:13.462Z,48.18
2018-10-07T09:46:42.081Z,46.98
2018-10-07T09:49:10.780Z,47.54
2018-10-07T09:51:39.142Z,47.97
2018-10-07T09:54:07.503Z,46.23
2018-10-07T09:56:36.274Z,46.50
2018-10-07T09:59:05.597Z,45.62
2018-10-07T10:01:34.512Z,45.58
2018-10-07T10:04:03.080Z,45.86
2018-10-07T10:06:32.071Z,45.73
2018-10-07T10:09:00.813Z,45.32
2018-10-07T10:11:29.324Z,44.15
2018-10-07T10:13:57.671Z,43.96
2018-10-07T10:16:33.684Z,44.20
2018-10-07T10:19:04.419Z,44.09
2018-10-07T10:21:37.722Z,43.73
2018-10-07T10:24:16.403Z,44.38
2018-10-07T10:29:02.102Z,44.13
2018-10-07T10:31:43.096Z,43.21
2018-10-07T10:34:14.731Z,43.92
2018-10-07T10:36:49.941Z,42.86
2018-10-07T10:39:54.459Z,42.11
2018-10-07T10:43:01.549Z,41.58
2018-10-07T10:45:33.535Z,42.39
2018-10-07T10:48:18.778Z,41.97
2018-10-07T10:51:53.166Z,40.01
2018-10-07T10:54:31.503Z,41.26
2018-10-07T10:57:05.484Z,39.82
2018-10-07T10:59:41.828Z,39.48
2018-10-07T11:02:30.005Z,38.26
2018-10-07T11:05:09.508Z,40.28
2018-10-07T11:08:00.176Z,39.35
2018-10-07T11:10:38.173Z,36.79
2018-10-07T11:13:25.182Z,37.38
2018-10-07T11:16:04.560Z,37.34
2018-10-07T11:21:56.222Z,37.33
2018-10-07T11:24:34.828Z,37.41
2018-10-07T11:27:08.948Z,38.49
2018-10-07T11:29:46.316Z,38.19
2018-10-07T11:34:27.139Z,38.62
2018-10-07T11:38:04.305Z,37.03
2018-10-07T11:40:44.806Z,37.09
2018-10-07T11:43:22.677Z,36.79
2018-10-07T11:47:59.053Z,35.60
2018-10-07T11:51:04.084Z,35.96
2018-10-07T11:54:10.465Z,33.86
2018-10-07T11:56:39.246Z,34.59
2018-10-07T11:59:07.817Z,34.99
2018-10-07T12:01:36.463Z,35.19
2018-10-07T12:04:04.969Z,33.61
2018-10-07T12:06:33.436Z,33.78
2018-10-07T12:09:02.096Z,34.89
2018-10-07T12:11:30.494Z,33.67
2018-10-07T12:13:59.007Z,32.43
2018-10-07T12:16:27.777Z,33.99
2018-10-07T12:18:56.573Z,33.54
2018-10-07T12:21:25.582Z,33.59
2018-10-07T12:23:54.453Z,32.33
2018-10-07T12:26:22.931Z,33.72
2018-10-07T12:28:51.431Z,34.23
2018-10-07T12:31:19.657Z,33.64
2018-10-07T12:33:48.826Z,33.59
2018-10-07T12:36:17.595Z,32.75
2018-10-07T12:38:46.273Z,32.01
2018-10-07T12:41:15.119Z,32.19
2018-10-07T12:43:44.540Z,33.29
2018-10-07T12:46:13.294Z,31.22
2018-10-07T12:48:42.597Z,31.70
2018-10-07T12:51:11.707Z,30.38
2018-10-07T12:53:41.055Z,29.98
2018-10-07T12:56:10.561Z,32.88
2018-10-07T12:58:39.994Z,31.71
2018-10-07T13:01:09.813Z,31.93
2018-10-07T13:03:39.739Z,30.50
2018-10-07T13:06:08.845Z,30.43
2018-10-07T13:08:38.264Z,30.47
2018-10-07T13:11:08.211Z,29.53
2018-10-07T13:13:37.929Z,31.09
2018-10-07T13:16:07.114Z,30.70
2018-10-07T13:18:37.251Z,31.48
2018-10-07T13:21:07.656Z,29.92
2018-10-07T13:23:37.184Z,31.65
2018-10-07T13:26:06.186Z,35.39
2018-10-07T13:28:35.750Z,30.54
2018-10-07T13:31:05.334Z,30.24
2018-10-07T13:33:34.481Z,32.19
2018-10-07T13:36:03.887Z,32.03
2018-10-07T13:38:32.710Z,30.17
2018-10-07T13:41:02.049Z,30.89
2018-10-07T13:43:30.923Z,34.32
2018-10-07T13:46:00.206Z,36.43
2018-10-07T13:48:28.918Z,33.22
2018-10-07T13:50:57.670Z,33.43
2018-10-07T13:53:26.570Z,35.15
2018-10-07T13:55:55.272Z,32.47
2018-10-07T13:58:24.908Z,33.52
2018-10-07T14:00:54.105Z,30.75
2018-10-07T14:03:22.643Z,33.26
2018-10-07T14:05:51.268Z,32.97
2018-10-07T14:08:19.781Z,32.12
2018-10-07T14:10:48.288Z,35.63
2018-10-07T14:13:16.971Z,35.11
2018-10-07T14:15:45.854Z,36.51
2018-10-07T14:18:14.058Z,37.33
2018-10-07T14:20:42.319Z,36.97
2018-10-07T14:23:10.627Z,38.17
2018-10-07T14:25:38.941Z,39.59
2018-10-07T14:28:08.341Z,35.90
2018-10-07T14:30:36.625Z,39.79
2018-10-07T14:33:05.207Z,41.04
2018-10-07T14:35:33.305Z,39.88
2018-10-07T14:38:01.670Z,41.25
2018-10-07T14:40:30.008Z,42.27
2018-10-07T14:42:58.209Z,43.01
2018-10-07T14:45:26.426Z,43.52
2018-10-07T14:47:54.999Z,44.17
2018-10-07T14:50:23.272Z,45.52
2018-10-07T14:52:51.541Z,46.39
2018-10-07T14:55:19.881Z,46.70
2018-10-07T14:57:48.147Z,47.04
2018-10-07T15:00:16.439Z,47.60
2018-10-07T15:02:44.679Z,48.33
2018-10-07T15:05:12.743Z,48.51
2018-10-07T15:07:41.062Z,48.71
2018-10-07T15:10:09.769Z,48.78
2018-10-07T15:12:38.503Z,49.36
2018-10-07T15:15:07.072Z,49.42
2018-10-07T15:17:35.431Z,49.80
2018-10-07T15:20:03.797Z,50.43
2018-10-07T15:22:32.355Z,50.92
2018-10-07T15:25:01.674Z,51.17
2018-10-07T15:27:30.090Z,51.57
2018-10-07T15:29:58.536Z,51.39
2018-10-07T15:32:27.229Z,51.97
2018-10-07T15:34:55.667Z,51.77
2018-10-07T15:37:24.044Z,52.51
2018-10-07T15:39:52.693Z,53.21
2018-10-07T15:42:21.226Z,52.76
2018-10-07T15:44:49.659Z,53.44
2018-10-07T15:47:18.257Z,53.84
2018-10-07T15:49:46.741Z,54.18
2018-10-07T15:52:15.035Z,54.91
2018-10-07T15:54:43.801Z,55.03
2018-10-07T15:57:12.303Z,55.68
2018-10-07T15:59:40.756Z,56.26
2018-10-07T16:02:09.348Z,56.34
2018-10-07T16:04:37.740Z,56.84
2018-10-07T16:07:06.314Z,56.64
2018-10-07T16:09:34.587Z,56.71
2018-10-07T16:12:02.898Z,56.80
2018-10-07T16:14:31.400Z,56.47
2018-10-07T16:16:59.971Z,56.76
2018-10-07T16:19:28.412Z,54.47
2018-10-07T16:21:56.912Z,53.96
2018-10-07T16:24:25.343Z,55.88
2018-10-07T16:26:54.181Z,56.29
2018-10-07T16:29:23.008Z,57.38
2018-10-07T16:31:51.647Z,57.76
2018-10-07T16:34:20.080Z,58.12
2018-10-07T16:36:48.485Z,58.60
2018-10-07T16:39:16.998Z,59.50
2018-10-07T16:41:45.502Z,59.35
2018-10-07T16:44:14.065Z,60.05
2018-10-07T16:46:42.416Z,59.94
2018-10-07T16:49:10.970Z,61.71
2018-10-07T16:51:39.428Z,61.63
2018-10-07T16:54:07.794Z,62.66
2018-10-07T16:56:36.347Z,62.21
2018-10-07T16:59:04.870Z,62.84
2018-10-07T17:01:33.255Z,62.83
2018-10-07T17:04:01.647Z,63.67
2018-10-07T17:06:30.233Z,61.81
2018-10-07T17:08:58.820Z,61.19
2018-10-07T17:11:27.183Z,61.65
2018-10-07T17:13:55.664Z,60.57
2018-10-07T17:16:24.211Z,61.94
2018-10-07T17:18:52.891Z,63.01
2018-10-07T17:21:21.411Z,63.85
2018-10-07T17:23:49.805Z,63.94
2018-10-07T17:26:18.249Z,63.68
2018-10-07T17:28:51.139Z,64.09
2018-10-07T17:31:23.512Z,65.83
2018-10-07T17:33:55.171Z,66.60
2018-10-07T17:36:27.328Z,67.09
2018-10-07T17:38:58.375Z,67.76
2018-10-07T17:41:29.772Z,67.10
2018-10-07T17:44:01.137Z,67.28
2018-10-07T17:46:30.179Z,67.54
2018-10-07T17:49:01.478Z,67.17
2018-10-07T17:51:30.581Z,67.59
2018-10-07T17:53:58.925Z,68.19
2018-10-07T17:56:27.259Z,68.54
2018-10-07T17:58:55.700Z,68.32
2018-10-07T18:01:24.155Z,68.50
2018-10-07T18:03:52.390Z,68.98
2018-10-07T18:06:21.217Z,68.27
2018-10-07T18:08:49.964Z,69.06
2018-10-07T18:11:18.730Z,68.35
2018-10-07T18:13:47.385Z,69.04
2018-10-07T18:16:15.792Z,69.49
2018-10-07T18:18:44.354Z,69.60
2018-10-07T18:21:12.980Z,69.23
2018-10-07T18:23:41.334Z,69.33
2018-10-07T18:26:09.712Z,70.02
2018-10-07T18:28:39.082Z,69.59
2018-10-07T18:31:07.777Z,70.25
2018-10-07T18:33:36.330Z,70.48
2018-10-07T18:36:05.096Z,69.76
2018-10-07T18:38:34.386Z,69.76
2018-10-07T18:41:02.783Z,70.02
2018-10-07T18:43:31.285Z,69.75
2018-10-07T18:45:59.581Z,70.14
2018-10-07T18:48:27.868Z,70.53
2018-10-07T18:50:56.159Z,70.16
2018-10-07T18:53:24.318Z,71.08
2018-10-07T18:55:52.488Z,71.50
2018-10-07T18:58:20.898Z,71.45
2018-10-07T19:00:49.083Z,71.29
2018-10-07T19:03:17.279Z,71.69
2018-10-07T19:05:45.613Z,72.32
2018-10-07T19:08:14.528Z,72.24
2018-10-07T19:10:43.296Z,71.36
2018-10-07T19:13:12.239Z,72.69
2018-10-07T19:15:40.538Z,72.43
2018-10-07T19:18:08.673Z,71.31
2018-10-07T19:20:37.885Z,70.19
2018-10-07T19:23:06.300Z,67.57
2018-10-07T19:25:34.503Z,68.21
2018-10-07T19:28:02.863Z,67.94
2018-10-07T19:30:31.617Z,66.92
2018-10-07T19:32:59.969Z,65.84
2018-10-07T19:35:28.183Z,67.96
2018-10-07T19:37:57.327Z,68.80
2018-10-07T19:40:26.322Z,68.92
2018-10-07T19:42:54.869Z,69.69
2018-10-07T19:45:23.434Z,67.41
2018-10-07T19:47:51.921Z,68.08
2018-10-07T19:50:20.126Z,68.79
2018-10-07T19:52:48.954Z,67.28
2018-10-07T19:55:17.294Z,68.68
2018-10-07T19:57:47.883Z,70.07
2018-10-07T20:00:16.256Z,70.20
2018-10-07T20:02:44.636Z,66.21
2018-10-07T20:05:12.887Z,68.28
2018-10-07T20:07:42.064Z,68.27
2018-10-07T20:10:10.222Z,64.67
2018-10-07T20:12:38.415Z,66.89
2018-10-07T20:15:06.649Z,67.84
2018-10-07T20:17:34.712Z,69.95
2018-10-07T20:20:02.869Z,65.12
2018-10-07T20:22:30.985Z,67.18
2018-10-07T20:24:59.111Z,60.06
2018-10-07T20:27:27.282Z,66.23
2018-10-07T20:29:55.591Z,67.53
2018-10-07T20:32:23.846Z,68.10
2018-10-07T20:34:52.035Z,67.64
2018-10-07T20:37:20.134Z,68.01
2018-10-07T20:39:48.270Z,69.14
2018-10-07T20:42:16.459Z,64.74
2018-10-07T20:44:44.502Z,67.16
2018-10-07T20:47:12.589Z,67.01
2018-10-07T20:49:40.721Z,67.76
2018-10-07T20:52:08.947Z,68.26
2018-10-07T20:54:36.923Z,67.27
2018-10-07T20:57:05.005Z,66.76
2018-10-07T20:59:33.097Z,68.06
2018-10-07T21:02:01.217Z,68.88
2018-10-07T21:04:29.682Z,67.93
2018-10-07T21:06:57.890Z,68.04
2018-10-07T21:09:25.959Z,69.59
2018-10-07T21:11:54.133Z,69.59
2018-10-07T21:14:22.187Z,69.38
2018-10-07T21:16:50.245Z,70.12
2018-10-07T21:19:18.273Z,70.22
2018-10-07T21:21:46.521Z,70.03
2018-10-07T21:24:14.726Z,69.64
2018-10-07T21:26:42.777Z,69.73
2018-10-07T21:29:10.846Z,70.58
2018-10-07T21:31:38.948Z,71.02
2018-10-07T21:34:07.184Z,71.46
2018-10-07T21:36:35.219Z,71.90
2018-10-07T21:39:04.495Z,71.92
2018-10-07T21:41:32.603Z,72.72
2018-10-07T21:44:00.628Z,73.27
2018-10-07T21:46:28.811Z,73.37
2018-10-07T21:48:56.864Z,74.50
2018-10-07T21:51:24.921Z,74.15
2018-10-07T21:53:52.923Z,74.36
2018-10-07T21:56:21.000Z,75.03
2018-10-07T21:58:49.178Z,76.45
2018-10-07T22:01:17.295Z,75.26
2018-10-07T22:03:45.479Z,76.62
2018-10-07T22:06:13.728Z,76.31
2018-10-07T22:08:41.882Z,76.40
2018-10-07T22:11:10.046Z,76.28
2018-10-07T22:13:38.225Z,76.29
2018-10-07T22:16:06.387Z,76.43
2018-10-07T22:18:34.594Z,77.44
2018-10-07T22:21:02.714Z,77.08
2018-10-07T22:23:30.910Z,77.96
2018-10-07T22:25:59.236Z,77.97
2018-10-07T22:28:27.417Z,78.36
2018-10-07T22:30:55.472Z,78.95
2018-10-07T22:33:23.510Z,78.85
2018-10-07T22:35:51.598Z,79.57
2018-10-07T22:38:19.573Z,79.82
2018-10-07T22:40:47.881Z,80.17
2018-10-07T22:43:15.976Z,79.80
2018-10-07T22:45:44.008Z,79.85
2018-10-07T22:48:12.099Z,79.39
2018-10-07T22:50:40.178Z,79.64
2018-10-07T22:53:08.202Z,80.88
2018-10-07T22:55:36.285Z,80.77
2018-10-07T22:58:04.317Z,80.37
2018-10-07T23:00:32.500Z,80.57
2018-10-07T23:03:00.513Z,80.89
2018-10-07T23:05:28.766Z,81.28
2018-10-07T23:07:56.841Z,81.98
2018-10-07T23:10:24.844Z,81.53
2018-10-07T23:12:52.905Z,81.92
2018-10-07T23:15:20.926Z,82.08
2018-10-07T23:17:48.980Z,81.56
2018-10-07T23:20:16.996Z,82.33
2018-10-07T23:22:44.981Z,81.10
2018-10-07T23:25:13.037Z,81.47
2018-10-07T23:27:41.148Z,82.07
2018-10-07T23:30:09.203Z,81.95
2018-10-07T23:32:37.293Z,81.52
2018-10-07T23:35:05.333Z,82.58
2018-10-07T23:37:33.487Z,82.39
2018-10-07T23:40:01.725Z,82.80
2018-10-07T23:42:29.749Z,83.09
2018-10-07T23:44:57.995Z,83.27
2018-10-07T23:47:26.034Z,83.96
2018-10-07T23:49:54.086Z,83.98
2018-10-07T23:52:22.512Z,83.75
2018-10-07T23:54:50.651Z,83.51
2018-10-07T23:57:18.678Z,83.60
2018-10-07T23:59:46.981Z,83.17
